Terminal Aerodrome Forecast
Issued by NWS

Current Version | Previous Version | Text Only | Print | Product List | Glossary Off
Versions: 1 2 3 4 5 6 7 8 9 10 11 12 13 14 15 16 17 18 19

000
FTUS41 KILN 280536
TAFLUK
TAF
KLUK 280536Z 2806/2906 00000KT 2SM BR BKN250
      TEMPO 2806/2808 3/4SM BR
     FM280800 00000KT 1SM BR SCT002
      TEMPO 2809/2812 1/2SM FG VV002
     FM281300 VRB02KT 5SM BR FEW012 SCT250
     FM281500 VRB03KT P6SM SCT250
     FM281700 08004KT P6SM VCSH FEW025 BKN040
     FM290000 VRB02KT P6SM FEW040 SCT250=

USA.gov is the U.S. government's official web portal to all federal, state and local government web resources and services.